createdAt,value
2018-05-04T00:00:23.455Z,5.94
2018-05-04T00:01:23.463Z,6.01
2018-05-04T00:02:23.477Z,6.00
2018-05-04T00:03:23.484Z,6.03
2018-05-04T00:04:23.492Z,6.03
2018-05-04T00:05:23.505Z,6.00
2018-05-04T00:06:23.516Z,6.00
2018-05-04T00:07:23.524Z,5.94
2018-05-04T00:08:23.535Z,5.97
2018-05-04T00:09:23.545Z,5.96
2018-05-04T00:10:23.555Z,5.94
2018-05-04T00:11:23.564Z,5.93
2018-05-04T00:12:23.575Z,6.00
2018-05-04T00:13:23.586Z,5.96
2018-05-04T00:14:23.597Z,5.99
2018-05-04T00:15:23.607Z,5.97
2018-05-04T00:16:23.617Z,5.89
2018-05-04T00:17:23.627Z,5.91
2018-05-04T00:18:23.639Z,5.94
2018-05-04T00:19:23.648Z,5.86
2018-05-04T00:20:23.656Z,5.96
2018-05-04T00:21:23.667Z,5.89
2018-05-04T00:22:23.681Z,5.85
2018-05-04T00:23:23.687Z,5.79
2018-05-04T00:24:23.697Z,5.67
2018-05-04T00:25:23.708Z,5.54
2018-05-04T00:26:23.719Z,5.40
2018-05-04T00:27:23.729Z,5.43
2018-05-04T00:28:23.739Z,5.43
2018-05-04T00:29:23.750Z,5.40
2018-05-04T00:30:23.760Z,5.46
2018-05-04T00:31:23.769Z,5.40
2018-05-04T00:32:23.780Z,5.40
2018-05-04T00:33:23.796Z,5.38
2018-05-04T00:34:23.801Z,5.35
2018-05-04T00:35:23.809Z,5.43
2018-05-04T00:36:23.818Z,5.40
2018-05-04T00:37:23.830Z,5.40
2018-05-04T00:38:23.840Z,5.36
2018-05-04T00:39:23.852Z,5.30
2018-05-04T00:40:23.858Z,5.35
2018-05-04T00:41:23.872Z,5.27
2018-05-04T00:42:23.880Z,5.22
2018-05-04T00:43:23.887Z,5.22
2018-05-04T00:44:23.899Z,5.27
2018-05-04T00:45:23.909Z,5.27
2018-05-04T00:46:23.922Z,5.25
2018-05-04T00:47:23.927Z,5.35
2018-05-04T00:48:23.937Z,5.33
2018-05-04T00:49:23.955Z,5.39
2018-05-04T00:50:23.961Z,5.36
2018-05-04T00:51:23.971Z,5.31
2018-05-04T00:52:23.979Z,5.39
2018-05-04T00:53:23.989Z,5.40
2018-05-04T00:54:23.999Z,5.46
2018-05-04T00:55:24.012Z,5.53
2018-05-04T00:56:24.019Z,5.53
2018-05-04T00:57:24.028Z,5.49
2018-05-04T00:58:24.037Z,5.63
2018-05-04T00:59:24.047Z,5.61
2018-05-04T01:00:24.056Z,5.65
2018-05-04T01:01:24.068Z,5.60
2018-05-04T01:02:24.088Z,5.65
2018-05-04T01:03:24.086Z,5.61
2018-05-04T01:04:24.097Z,5.71
2018-05-04T01:05:24.106Z,5.61
2018-05-04T01:06:24.119Z,5.58
2018-05-04T01:07:24.126Z,5.71
2018-05-04T01:08:24.137Z,5.63
2018-05-04T01:09:24.148Z,5.71
2018-05-04T01:10:24.157Z,5.68
2018-05-04T01:11:24.166Z,5.71
2018-05-04T01:12:24.176Z,5.71
2018-05-04T01:13:24.185Z,5.72
2018-05-04T01:14:24.194Z,5.67
2018-05-04T01:15:24.206Z,5.61
2018-05-04T01:16:24.216Z,5.65
2018-05-04T01:17:24.227Z,5.61
2018-05-04T01:18:24.236Z,5.68
2018-05-04T01:19:24.248Z,5.71
2018-05-04T01:20:24.257Z,5.76
2018-05-04T01:21:24.266Z,5.63
2018-05-04T01:22:24.284Z,5.79
2018-05-04T01:23:24.284Z,5.75
2018-05-04T01:24:24.296Z,5.76
2018-05-04T01:25:24.304Z,5.75
2018-05-04T01:26:24.315Z,5.63
2018-05-04T01:27:24.325Z,5.74
2018-05-04T01:28:24.335Z,5.65
2018-05-04T01:29:24.345Z,5.71
2018-05-04T01:30:24.356Z,5.61
2018-05-04T01:31:24.366Z,5.68
2018-05-04T01:32:24.375Z,5.72
2018-05-04T01:33:24.386Z,5.64
2018-05-04T01:34:24.395Z,5.57
2018-05-04T01:35:24.405Z,5.60
2018-05-04T01:36:24.417Z,5.67
2018-05-04T01:37:24.428Z,5.61
2018-05-04T01:38:24.437Z,5.67
2018-05-04T01:39:24.454Z,5.64
2018-05-04T01:40:24.457Z,5.68
2018-05-04T01:41:24.466Z,5.64
2018-05-04T01:42:24.487Z,5.58
2018-05-04T01:43:24.489Z,5.51
2018-05-04T01:44:24.497Z,5.51
2018-05-04T01:45:24.507Z,5.49
2018-05-04T01:46:24.520Z,5.51
2018-05-04T01:47:24.529Z,5.54
2018-05-04T01:48:24.536Z,5.45
2018-05-04T01:49:24.548Z,5.48
2018-05-04T01:50:24.561Z,5.51
2018-05-04T01:51:24.568Z,5.58
2018-05-04T01:52:24.577Z,5.54
2018-05-04T01:53:24.587Z,5.48
2018-05-04T01:54:24.597Z,5.54
2018-05-04T01:55:24.608Z,5.49
2018-05-04T01:56:24.618Z,5.46
2018-05-04T01:57:24.627Z,5.51
2018-05-04T01:58:24.638Z,5.48
2018-05-04T01:59:24.647Z,5.48
2018-05-04T02:00:24.661Z,5.53
2018-05-04T02:01:24.669Z,5.49
2018-05-04T02:02:24.680Z,5.49
2018-05-04T02:03:24.689Z,5.49
2018-05-04T02:04:24.706Z,5.51
2018-05-04T02:05:24.709Z,5.51
2018-05-04T02:06:24.722Z,5.51
2018-05-04T02:07:24.726Z,5.51
2018-05-04T02:08:24.738Z,5.53
2018-05-04T02:09:24.747Z,5.48
2018-05-04T02:10:24.760Z,5.53
2018-05-04T02:11:24.769Z,5.53
2018-05-04T02:12:24.778Z,5.53
2018-05-04T02:13:24.797Z,5.54
2018-05-04T02:14:24.797Z,5.54
2018-05-04T02:15:24.813Z,5.56
2018-05-04T02:16:24.819Z,5.51
2018-05-04T02:17:24.827Z,5.53
2018-05-04T02:18:24.838Z,5.43
2018-05-04T02:19:24.847Z,5.53
2018-05-04T02:20:24.858Z,5.49
2018-05-04T02:21:24.870Z,5.49
2018-05-04T02:22:24.878Z,5.49
2018-05-04T02:23:24.891Z,5.43
2018-05-04T02:24:24.897Z,5.48
2018-05-04T02:25:24.912Z,5.48
2018-05-04T02:26:24.918Z,5.51
2018-05-04T02:27:24.927Z,5.51
2018-05-04T02:28:24.938Z,5.56
2018-05-04T02:29:24.946Z,5.49
2018-05-04T02:30:24.958Z,5.49
2018-05-04T02:31:24.973Z,5.53
2018-05-04T02:32:24.976Z,5.49
2018-05-04T02:33:24.989Z,5.48
2018-05-04T02:34:24.998Z,5.54
2018-05-04T02:35:25.006Z,5.56
2018-05-04T02:36:25.018Z,5.48
2018-05-04T02:37:25.029Z,5.54
2018-05-04T02:38:25.037Z,5.58
2018-05-04T02:39:25.056Z,5.54
2018-05-04T02:40:25.058Z,5.60
2018-05-04T02:41:25.071Z,5.56
2018-05-04T02:42:25.078Z,5.58
2018-05-04T02:43:25.087Z,5.57
2018-05-04T02:44:25.097Z,5.64
2018-05-04T02:45:25.107Z,5.60
2018-05-04T02:46:25.116Z,5.58
2018-05-04T02:47:25.127Z,5.60
2018-05-04T02:48:25.140Z,5.51
2018-05-04T02:49:25.177Z,5.64
2018-05-04T02:50:25.156Z,5.61
2018-05-04T02:51:25.167Z,5.51
2018-05-04T02:52:25.177Z,5.49
2018-05-04T02:53:25.187Z,5.46
2018-05-04T02:54:25.198Z,5.43
2018-05-04T02:55:25.354Z,5.46
2018-05-04T02:56:25.216Z,5.45
2018-05-04T02:57:25.227Z,5.35
2018-05-04T02:58:25.239Z,5.45
2018-05-04T02:59:25.245Z,5.43
2018-05-04T03:00:25.257Z,5.38
2018-05-04T03:01:25.269Z,5.40
2018-05-04T03:02:25.277Z,5.33
2018-05-04T03:03:25.292Z,5.38
2018-05-04T03:04:25.325Z,5.42
2018-05-04T03:05:25.306Z,5.38
2018-05-04T03:06:25.316Z,5.35
2018-05-04T03:07:25.328Z,5.40
2018-05-04T03:08:25.337Z,5.40
2018-05-04T03:09:25.345Z,5.46
2018-05-04T03:10:25.359Z,5.30
2018-05-04T03:11:25.365Z,5.40
2018-05-04T03:12:25.376Z,5.42
2018-05-04T03:13:25.391Z,5.35
2018-05-04T03:14:25.399Z,5.22
2018-05-04T03:15:25.406Z,5.20
2018-05-04T03:16:25.417Z,5.17
2018-05-04T03:17:25.426Z,5.21
2018-05-04T03:18:25.435Z,5.10
2018-05-04T03:19:25.484Z,5.00
2018-05-04T03:20:25.455Z,5.04
2018-05-04T03:21:25.467Z,5.06
2018-05-04T03:22:25.477Z,5.03
2018-05-04T03:23:25.488Z,5.02
2018-05-04T03:24:25.508Z,5.02
2018-05-04T03:25:25.504Z,4.96
2018-05-04T03:26:25.514Z,5.03
2018-05-04T03:27:25.525Z,5.06
2018-05-04T03:28:25.533Z,5.13
2018-05-04T03:29:25.543Z,5.13
2018-05-04T03:30:25.555Z,5.13
2018-05-04T03:31:25.564Z,5.17
2018-05-04T03:32:25.578Z,5.17
2018-05-04T03:33:25.584Z,5.22
2018-05-04T03:34:25.593Z,5.22
2018-05-04T03:35:25.601Z,5.25
2018-05-04T03:36:25.613Z,5.25
2018-05-04T03:37:25.620Z,5.27
2018-05-04T03:38:25.633Z,5.30
2018-05-04T03:39:25.642Z,5.35
2018-05-04T03:40:25.653Z,5.31
2018-05-04T03:41:25.660Z,5.36
2018-05-04T03:42:25.670Z,5.35
2018-05-04T03:43:25.679Z,5.33
2018-05-04T03:44:25.691Z,5.36
2018-05-04T03:45:25.698Z,5.46
2018-05-04T03:46:25.709Z,5.39
2018-05-04T03:47:25.719Z,5.45
2018-05-04T03:48:25.728Z,5.42
2018-05-04T03:49:25.738Z,5.43
2018-05-04T03:50:25.750Z,5.38
2018-05-04T03:51:25.758Z,5.40
2018-05-04T03:52:25.767Z,5.36
2018-05-04T03:53:25.778Z,5.33
2018-05-04T03:54:25.792Z,5.36
2018-05-04T03:55:25.797Z,5.24
2018-05-04T03:56:25.807Z,5.21
2018-05-04T03:57:25.818Z,5.20
2018-05-04T03:58:25.828Z,5.21
2018-05-04T03:59:25.834Z,5.22
2018-05-04T04:00:25.881Z,5.24
2018-05-04T04:01:25.854Z,5.27
2018-05-04T04:02:25.885Z,5.39
2018-05-04T04:03:25.874Z,5.33
2018-05-04T04:04:25.884Z,5.36
2018-05-04T04:05:25.895Z,5.28
2018-05-04T04:06:25.905Z,5.43
2018-05-04T04:07:25.913Z,5.33
2018-05-04T04:08:25.922Z,5.42
2018-05-04T04:09:25.934Z,5.35
2018-05-04T04:10:25.942Z,5.39
2018-05-04T04:11:25.958Z,5.39
2018-05-04T04:12:25.964Z,5.38
2018-05-04T04:13:25.973Z,5.46
2018-05-04T04:14:25.981Z,5.46
2018-05-04T04:15:25.991Z,5.46
2018-05-04T04:16:26.002Z,5.48
2018-05-04T04:17:26.012Z,5.51
2018-05-04T04:18:26.019Z,5.43
2018-05-04T04:19:26.032Z,5.43
2018-05-04T04:20:26.039Z,5.42
2018-05-04T04:21:26.050Z,5.38
2018-05-04T04:22:26.057Z,5.54
2018-05-04T04:23:26.067Z,5.39
2018-05-04T04:24:26.078Z,5.39
2018-05-04T04:25:26.087Z,5.38
2018-05-04T04:26:26.098Z,5.39
2018-05-04T04:27:26.106Z,5.40
2018-05-04T04:28:26.117Z,5.42
2018-05-04T04:29:26.125Z,5.54
2018-05-04T04:30:26.135Z,5.51
2018-05-04T04:31:26.145Z,5.54
2018-05-04T04:32:26.155Z,5.58
2018-05-04T04:33:26.164Z,5.60
2018-05-04T04:34:26.173Z,5.60
2018-05-04T04:35:26.185Z,5.58
2018-05-04T04:36:26.199Z,5.61
2018-05-04T04:37:26.203Z,5.58
2018-05-04T04:38:26.213Z,5.63
2018-05-04T04:39:26.221Z,5.63
2018-05-04T04:40:26.233Z,5.68
2018-05-04T04:41:26.243Z,5.64
2018-05-04T04:42:26.251Z,5.74
2018-05-04T04:43:26.260Z,5.65
2018-05-04T04:44:26.273Z,5.74
2018-05-04T04:45:26.282Z,5.61
2018-05-04T04:46:26.292Z,5.60
2018-05-04T04:47:26.306Z,5.74
2018-05-04T04:48:26.312Z,5.71
2018-05-04T04:49:26.320Z,5.63
2018-05-04T04:50:26.330Z,5.68
2018-05-04T04:51:26.338Z,5.71
2018-05-04T04:52:26.350Z,5.75
2018-05-04T04:53:26.359Z,5.79
2018-05-04T04:54:26.368Z,5.75
2018-05-04T04:55:26.380Z,5.76
2018-05-04T04:56:26.389Z,5.85
2018-05-04T04:57:26.401Z,5.82
2018-05-04T04:58:26.408Z,5.82
2018-05-04T04:59:26.417Z,5.85
2018-05-04T05:00:26.428Z,5.81
2018-05-04T05:01:26.438Z,5.82
2018-05-04T05:02:26.447Z,5.82
2018-05-04T05:03:26.457Z,5.83
2018-05-04T05:04:26.468Z,5.94
2018-05-04T05:05:26.476Z,5.96
2018-05-04T05:06:26.485Z,5.90
2018-05-04T05:07:26.495Z,5.93
2018-05-04T05:08:26.504Z,5.99
2018-05-04T05:09:26.513Z,5.90
2018-05-04T05:10:26.529Z,5.93
2018-05-04T05:11:26.535Z,5.99
2018-05-04T05:12:26.544Z,6.04
2018-05-04T05:13:26.616Z,6.00
2018-05-04T05:14:26.564Z,6.04
2018-05-04T05:15:26.573Z,6.06
2018-05-04T05:16:26.585Z,6.08
2018-05-04T05:17:26.594Z,6.18
2018-05-04T05:18:26.606Z,6.18
2018-05-04T05:19:26.614Z,6.19
2018-05-04T05:20:26.625Z,6.14
2018-05-04T05:21:26.634Z,6.25
2018-05-04T05:22:26.648Z,6.19
2018-05-04T05:23:26.656Z,6.27
2018-05-04T05:24:26.664Z,6.25
2018-05-04T05:25:26.674Z,6.31
2018-05-04T05:26:26.686Z,6.27
2018-05-04T05:27:26.695Z,6.25
2018-05-04T05:28:26.704Z,6.34
2018-05-04T05:29:26.715Z,6.27
2018-05-04T05:30:26.734Z,6.28
2018-05-04T05:31:26.735Z,6.36
2018-05-04T05:32:26.745Z,6.30
2018-05-04T05:33:26.759Z,6.28
2018-05-04T05:34:26.772Z,6.21
2018-05-04T05:35:26.775Z,6.28
2018-05-04T05:36:26.786Z,6.33
2018-05-04T05:37:26.796Z,6.22
2018-05-04T05:38:26.806Z,6.38
2018-05-04T05:39:26.816Z,6.40
2018-05-04T05:40:26.831Z,6.41
2018-05-04T05:41:26.841Z,6.48
2018-05-04T05:42:26.869Z,6.44
2018-05-04T05:43:26.861Z,6.55
2018-05-04T05:44:26.866Z,6.43
2018-05-04T05:45:26.879Z,6.38
2018-05-04T05:46:26.892Z,6.41
2018-05-04T05:47:26.897Z,6.34
2018-05-04T05:48:26.909Z,6.40
2018-05-04T05:49:26.920Z,6.34
2018-05-04T05:50:26.930Z,6.37
2018-05-04T05:51:26.937Z,6.41
2018-05-04T05:52:26.952Z,6.48
2018-05-04T05:53:26.959Z,6.51
2018-05-04T05:54:26.970Z,6.58
2018-05-04T05:55:26.980Z,6.67
2018-05-04T05:56:26.990Z,6.70
2018-05-04T05:57:27.001Z,6.79
2018-05-04T05:58:27.012Z,6.73
2018-05-04T05:59:27.020Z,6.87
2018-05-04T06:00:27.031Z,6.91
2018-05-04T06:01:27.043Z,6.98
2018-05-04T06:02:27.053Z,6.99
2018-05-04T06:03:27.062Z,7.07
2018-05-04T06:04:27.073Z,7.16
2018-05-04T06:05:27.086Z,7.21
2018-05-04T06:06:27.096Z,7.24
2018-05-04T06:07:27.105Z,7.27
2018-05-04T06:08:27.114Z,7.40
2018-05-04T06:09:27.377Z,7.27
2018-05-04T06:10:27.142Z,7.32
2018-05-04T06:11:27.147Z,7.45
2018-05-04T06:12:27.158Z,7.43
2018-05-04T06:13:27.171Z,7.43
2018-05-04T06:14:27.181Z,7.43
2018-05-04T06:15:27.190Z,7.32
2018-05-04T06:16:27.201Z,7.42
2018-05-04T06:17:27.214Z,7.45
2018-05-04T06:18:27.224Z,7.43
2018-05-04T06:19:27.233Z,7.53
2018-05-04T06:20:27.247Z,7.58
2018-05-04T06:21:27.262Z,7.60
2018-05-04T06:22:27.268Z,7.72
2018-05-04T06:23:27.278Z,7.75
2018-05-04T06:24:27.287Z,7.82
2018-05-04T06:25:27.315Z,7.85
2018-05-04T06:26:27.312Z,7.93
2018-05-04T06:27:27.323Z,8.04
2018-05-04T06:28:27.331Z,8.07
2018-05-04T06:29:27.344Z,8.05
2018-05-04T06:30:27.356Z,8.15
2018-05-04T06:31:27.363Z,8.07
2018-05-04T06:32:27.376Z,8.10
2018-05-04T06:33:27.387Z,8.19
2018-05-04T06:34:27.399Z,8.30
2018-05-04T06:35:27.411Z,8.26
2018-05-04T06:36:27.421Z,8.30
2018-05-04T06:37:27.433Z,8.29
2018-05-04T06:38:27.445Z,8.33
2018-05-04T06:39:27.458Z,8.29
2018-05-04T06:40:27.463Z,8.29
2018-05-04T06:41:27.476Z,8.40
2018-05-04T06:42:27.487Z,8.38
2018-05-04T06:43:27.502Z,8.29
2018-05-04T06:44:27.511Z,8.29
2018-05-04T06:45:27.522Z,8.30
2018-05-04T06:46:27.533Z,8.40
2018-05-04T06:47:27.544Z,8.30
2018-05-04T06:48:27.555Z,8.34
2018-05-04T06:49:27.566Z,8.23
2018-05-04T06:50:27.577Z,8.30
2018-05-04T06:51:27.590Z,8.25
2018-05-04T06:52:27.604Z,8.33
2018-05-04T06:53:27.613Z,8.30
2018-05-04T06:54:27.627Z,8.37
2018-05-04T06:55:27.639Z,8.33
2018-05-04T06:56:27.646Z,8.43
2018-05-04T06:57:27.657Z,8.40
2018-05-04T06:58:27.669Z,8.55
2018-05-04T06:59:27.716Z,8.15
2018-05-04T07:00:27.695Z,8.02
2018-05-04T07:01:27.708Z,8.11
2018-05-04T07:02:27.713Z,8.07
2018-05-04T07:03:27.728Z,8.00
2018-05-04T07:04:27.737Z,8.22
2018-05-04T07:05:27.751Z,7.98
2018-05-04T07:06:27.761Z,8.10
2018-05-04T07:07:27.771Z,8.05
2018-05-04T07:08:27.782Z,8.11
2018-05-04T07:09:27.796Z,8.00
2018-05-04T07:10:27.832Z,7.97
2018-05-04T07:11:27.815Z,8.04
2018-05-04T07:12:27.828Z,8.05
2018-05-04T07:13:27.841Z,8.19
2018-05-04T07:14:27.850Z,8.26
2018-05-04T07:15:27.864Z,8.37
2018-05-04T07:16:27.879Z,8.29
2018-05-04T07:17:27.886Z,8.41
2018-05-04T07:18:27.896Z,8.47
2018-05-04T07:19:27.907Z,8.45
2018-05-04T07:20:27.923Z,8.59
2018-05-04T07:21:27.931Z,8.50
2018-05-04T07:22:27.943Z,8.65
2018-05-04T07:23:27.958Z,8.61
2018-05-04T07:24:27.965Z,8.53
2018-05-04T07:25:27.977Z,8.52
2018-05-04T07:26:27.989Z,8.55
2018-05-04T07:27:28.000Z,8.63
2018-05-04T07:28:28.015Z,8.53
2018-05-04T07:29:28.023Z,8.40
2018-05-04T07:30:28.036Z,8.36
2018-05-04T07:31:28.046Z,8.33
2018-05-04T07:32:28.058Z,8.41
2018-05-04T07:33:28.071Z,8.30
2018-05-04T07:34:28.085Z,8.43
2018-05-04T07:35:28.097Z,8.52
2018-05-04T07:36:28.104Z,8.66
2018-05-04T07:37:28.116Z,8.70
2018-05-04T07:38:28.128Z,8.70
2018-05-04T07:39:28.139Z,8.73
2018-05-04T07:40:28.150Z,8.73
2018-05-04T07:41:28.163Z,8.81
2018-05-04T07:42:28.173Z,8.74
2018-05-04T07:43:28.185Z,8.77
2018-05-04T07:44:28.196Z,8.81
2018-05-04T07:45:28.208Z,8.99
2018-05-04T07:46:28.220Z,9.04
2018-05-04T07:47:28.230Z,8.99
2018-05-04T07:48:28.242Z,9.02
2018-05-04T07:49:28.254Z,9.32
2018-05-04T07:50:28.267Z,9.29
2018-05-04T07:51:28.277Z,8.95
2018-05-04T07:52:28.291Z,8.96
2018-05-04T07:53:28.300Z,8.99
2018-05-04T07:54:28.314Z,9.13
2018-05-04T07:55:28.330Z,9.23
2018-05-04T07:56:28.339Z,9.24
2018-05-04T07:57:28.349Z,9.15
2018-05-04T07:58:28.364Z,9.05
2018-05-04T07:59:28.370Z,8.95
2018-05-04T08:00:28.384Z,8.79
2018-05-04T08:01:28.394Z,8.65
2018-05-04T08:02:28.407Z,8.43
2018-05-04T08:03:28.417Z,8.45
2018-05-04T08:04:28.430Z,8.74
2018-05-04T08:05:28.443Z,8.77
2018-05-04T08:06:28.453Z,8.76
2018-05-04T08:07:28.465Z,9.04
2018-05-04T08:08:28.562Z,9.11
2018-05-04T08:09:28.498Z,8.86
2018-05-04T08:10:28.501Z,8.86
2018-05-04T08:11:28.512Z,8.76
2018-05-04T08:12:28.525Z,8.94
2018-05-04T08:13:28.537Z,8.91
2018-05-04T08:14:28.549Z,8.95
2018-05-04T08:15:28.559Z,9.13
2018-05-04T08:16:28.573Z,9.21
2018-05-04T08:17:28.585Z,9.38
2018-05-04T08:18:28.599Z,9.50
2018-05-04T08:19:28.607Z,9.61
2018-05-04T08:20:28.619Z,9.66
2018-05-04T08:21:28.633Z,9.47
2018-05-04T08:22:28.643Z,9.64
2018-05-04T08:23:28.657Z,9.75
2018-05-04T08:24:28.671Z,9.84
2018-05-04T08:25:28.680Z,9.93
2018-05-04T08:26:28.692Z,10.05
2018-05-04T08:27:28.836Z,9.93
2018-05-04T08:28:28.716Z,10.15
2018-05-04T08:29:28.729Z,10.30
2018-05-04T08:30:28.740Z,10.34
2018-05-04T08:31:28.752Z,10.66
2018-05-04T08:32:28.765Z,10.73
2018-05-04T08:33:28.778Z,10.60
2018-05-04T08:34:28.790Z,10.94
2018-05-04T08:35:28.882Z,11.02
2018-05-04T08:36:28.815Z,11.17
2018-05-04T08:37:28.828Z,11.24
2018-05-04T08:38:28.839Z,11.24
2018-05-04T08:39:28.851Z,11.46
2018-05-04T08:40:28.869Z,11.07
2018-05-04T08:41:28.878Z,11.09
2018-05-04T08:42:28.891Z,11.07
2018-05-04T08:43:28.902Z,11.14
2018-05-04T08:44:28.916Z,11.10
2018-05-04T08:45:28.928Z,11.35
2018-05-04T08:46:28.943Z,11.09
2018-05-04T08:47:28.953Z,11.15
2018-05-04T08:48:28.968Z,11.33
2018-05-04T08:49:28.979Z,11.37
2018-05-04T08:50:28.995Z,11.37
2018-05-04T08:51:29.006Z,11.39
2018-05-04T08:52:29.030Z,11.58
2018-05-04T08:53:29.033Z,11.51
2018-05-04T08:54:29.179Z,11.62
2018-05-04T08:55:29.058Z,11.86
2018-05-04T08:56:29.073Z,11.98
2018-05-04T08:57:29.123Z,11.86
2018-05-04T08:58:29.100Z,11.83
2018-05-04T08:59:29.146Z,11.85
2018-05-04T09:00:29.126Z,11.82
2018-05-04T09:01:29.140Z,11.55
2018-05-04T09:02:29.155Z,11.37
2018-05-04T09:03:29.166Z,11.03
2018-05-04T09:04:29.181Z,11.06
2018-05-04T09:05:29.333Z,10.99
2018-05-04T09:06:29.209Z,11.15
2018-05-04T09:07:29.229Z,11.18
2018-05-04T09:08:29.236Z,11.18
2018-05-04T09:09:29.258Z,11.29
2018-05-04T09:10:29.262Z,11.32
2018-05-04T09:11:29.279Z,11.25
2018-05-04T09:12:29.295Z,11.35
2018-05-04T09:13:29.304Z,11.51
2018-05-04T09:14:29.320Z,11.44
2018-05-04T09:15:29.332Z,11.69
2018-05-04T09:16:29.346Z,11.55
2018-05-04T09:17:29.362Z,11.86
2018-05-04T09:18:29.376Z,12.29
2018-05-04T09:19:29.388Z,12.27
2018-05-04T09:20:29.401Z,12.16
2018-05-04T09:21:29.415Z,12.29
2018-05-04T09:22:29.431Z,11.94
2018-05-04T09:23:29.443Z,12.23
2018-05-04T09:24:29.458Z,12.14
2018-05-04T09:25:29.476Z,11.90
2018-05-04T09:26:29.496Z,11.85
2018-05-04T09:27:29.500Z,11.91
2018-05-04T09:28:29.516Z,11.79
2018-05-04T09:29:29.527Z,11.91
2018-05-04T09:30:29.545Z,11.94
2018-05-04T09:31:29.556Z,12.20
2018-05-04T09:32:29.575Z,12.86
2018-05-04T09:33:29.586Z,12.97
2018-05-04T09:34:29.605Z,13.05
2018-05-04T09:35:29.613Z,13.12
2018-05-04T09:36:29.628Z,13.10
2018-05-04T09:37:29.643Z,12.86
2018-05-04T09:38:29.658Z,12.77
2018-05-04T09:39:29.671Z,12.35
2018-05-04T09:40:29.685Z,12.46
2018-05-04T09:41:29.700Z,12.85
2018-05-04T09:42:29.713Z,13.22
2018-05-04T09:43:29.790Z,13.10
2018-05-04T09:44:29.744Z,12.96
2018-05-04T09:45:29.759Z,13.07
2018-05-04T09:46:29.773Z,12.97
2018-05-04T09:47:29.797Z,13.03
2018-05-04T09:48:29.803Z,13.15
2018-05-04T09:49:29.818Z,13.23
2018-05-04T09:50:29.835Z,12.89
2018-05-04T09:51:29.931Z,12.85
2018-05-04T09:52:29.863Z,12.93
2018-05-04T09:53:29.877Z,12.62
2018-05-04T09:54:29.892Z,12.52
2018-05-04T09:55:29.907Z,12.29
2018-05-04T09:56:29.921Z,11.73
2018-05-04T09:57:29.939Z,11.80
2018-05-04T09:58:29.951Z,11.86
2018-05-04T09:59:29.971Z,11.64
2018-05-04T10:00:29.981Z,11.94
2018-05-04T10:01:29.998Z,12.02
2018-05-04T10:02:30.015Z,12.19
2018-05-04T10:03:30.076Z,12.41
2018-05-04T10:04:30.042Z,12.41
2018-05-04T10:05:30.055Z,12.57
2018-05-04T10:06:30.072Z,12.67
2018-05-04T10:07:30.085Z,12.75
2018-05-04T10:08:30.098Z,12.83
2018-05-04T10:09:30.115Z,12.92
2018-05-04T10:10:30.131Z,13.00
2018-05-04T10:11:30.144Z,13.00
2018-05-04T10:12:30.161Z,12.93
2018-05-04T10:13:30.178Z,12.52
2018-05-04T10:14:30.191Z,12.54
2018-05-04T10:15:30.205Z,12.49
2018-05-04T10:16:30.220Z,12.24
2018-05-04T10:17:30.235Z,12.62
2018-05-04T10:18:30.250Z,12.87
2018-05-04T10:19:30.266Z,12.89
2018-05-04T10:20:30.281Z,13.00
2018-05-04T10:21:30.295Z,12.96
2018-05-04T10:22:30.312Z,12.35
2018-05-04T10:23:30.327Z,11.98
2018-05-04T10:24:30.340Z,12.16
2018-05-04T10:25:30.358Z,12.64
2018-05-04T10:26:30.372Z,13.05
2018-05-04T10:27:30.388Z,13.12
2018-05-04T10:28:30.403Z,13.15
2018-05-04T10:29:30.417Z,13.46
2018-05-04T10:30:30.435Z,13.29
2018-05-04T10:31:30.497Z,13.30
2018-05-04T10:32:30.464Z,13.29
2018-05-04T10:33:30.480Z,13.17
2018-05-04T10:34:30.497Z,13.45
2018-05-04T10:35:30.511Z,13.75
2018-05-04T10:36:30.531Z,13.96
2018-05-04T10:37:30.538Z,14.33
2018-05-04T10:38:30.599Z,14.27
2018-05-04T10:39:30.570Z,14.14
2018-05-04T10:40:30.586Z,13.85
2018-05-04T10:41:30.603Z,13.54
2018-05-04T10:42:30.617Z,13.49
2018-05-04T10:43:30.632Z,13.62
2018-05-04T10:44:30.649Z,13.45
2018-05-04T10:45:30.664Z,13.46
2018-05-04T10:46:30.681Z,13.36
2018-05-04T10:47:30.697Z,13.23
2018-05-04T10:48:30.715Z,13.25
2018-05-04T10:49:30.729Z,13.08
2018-05-04T10:50:30.744Z,12.95
2018-05-04T10:51:30.760Z,13.03
2018-05-04T10:52:30.776Z,13.07
2018-05-04T10:53:30.792Z,13.07
2018-05-04T10:54:30.807Z,13.28
2018-05-04T10:55:30.829Z,13.30
2018-05-04T10:56:30.840Z,13.70
2018-05-04T10:57:30.859Z,13.79
2018-05-04T10:58:30.870Z,13.64
2018-05-04T10:59:30.886Z,13.78
2018-05-04T11:00:30.904Z,13.42
2018-05-04T11:01:30.918Z,13.12
2018-05-04T11:02:30.935Z,13.12
2018-05-04T11:03:30.949Z,13.26
2018-05-04T11:04:30.968Z,13.26
2018-05-04T11:05:30.982Z,13.17
2018-05-04T11:06:30.999Z,13.28
2018-05-04T11:07:31.013Z,13.33
2018-05-04T11:08:31.029Z,13.07
2018-05-04T11:09:31.048Z,13.25
2018-05-04T11:10:31.061Z,13.28
2018-05-04T11:11:31.077Z,13.41
2018-05-04T11:12:31.095Z,13.55
2018-05-04T11:13:31.109Z,13.71
2018-05-04T11:14:31.124Z,13.48
2018-05-04T11:15:31.140Z,13.41
2018-05-04T11:16:31.156Z,13.33
2018-05-04T11:17:31.172Z,13.22
2018-05-04T11:18:31.187Z,13.17
2018-05-04T11:19:31.242Z,13.33
2018-05-04T11:20:31.219Z,13.38
2018-05-04T11:21:31.235Z,13.51
2018-05-04T11:22:31.251Z,13.77
2018-05-04T11:23:31.266Z,13.79
2018-05-04T11:24:31.283Z,13.82
2018-05-04T11:25:31.312Z,13.87
2018-05-04T11:26:31.313Z,13.92
2018-05-04T11:27:31.331Z,13.85
2018-05-04T11:28:31.348Z,13.87
2018-05-04T11:29:31.364Z,13.78
2018-05-04T11:30:31.386Z,13.84
2018-05-04T11:31:31.396Z,13.89
2018-05-04T11:32:31.411Z,13.99
2018-05-04T11:33:31.428Z,14.24
2018-05-04T11:34:31.444Z,14.09
2018-05-04T11:35:31.459Z,13.92
2018-05-04T11:36:31.476Z,14.09
2018-05-04T11:37:31.493Z,14.04
2018-05-04T11:38:31.509Z,13.88
2018-05-04T11:39:31.524Z,14.09
2018-05-04T11:40:31.540Z,14.52
2018-05-04T11:41:31.557Z,14.50
2018-05-04T11:42:31.573Z,14.75
2018-05-04T11:43:31.590Z,14.96
2018-05-04T11:44:31.606Z,15.29
2018-05-04T11:45:31.622Z,15.74
2018-05-04T11:46:31.639Z,16.11
2018-05-04T11:47:31.654Z,16.35
2018-05-04T11:48:31.672Z,16.49
2018-05-04T11:49:31.725Z,16.57
2018-05-04T11:50:31.706Z,16.91
2018-05-04T11:51:31.723Z,17.00
2018-05-04T11:52:31.741Z,16.71
2018-05-04T11:53:31.758Z,17.15
2018-05-04T11:54:31.773Z,17.16
2018-05-04T11:55:31.791Z,17.15
2018-05-04T11:56:31.808Z,17.01
2018-05-04T11:57:31.828Z,17.33
2018-05-04T11:58:31.847Z,17.56
2018-05-04T11:59:31.861Z,17.15
2018-05-04T12:00:31.879Z,17.00
2018-05-04T12:01:31.896Z,16.42
2018-05-04T12:02:32.002Z,15.78
2018-05-04T12:03:31.931Z,15.57
2018-05-04T12:04:31.949Z,15.36
2018-05-04T12:05:31.969Z,15.09
2018-05-04T12:06:31.984Z,14.94
2018-05-04T12:07:32.002Z,14.84
2018-05-04T12:08:32.019Z,14.99
2018-05-04T12:09:32.036Z,14.88
2018-05-04T12:10:32.054Z,14.84
2018-05-04T12:11:32.070Z,14.78
2018-05-04T12:12:32.088Z,14.68
2018-05-04T12:13:32.106Z,14.47
2018-05-04T12:14:32.124Z,14.14
2018-05-04T12:15:32.140Z,14.02
2018-05-04T12:16:32.245Z,13.77
2018-05-04T12:17:32.177Z,13.91
2018-05-04T12:18:32.192Z,14.07
2018-05-04T12:19:32.208Z,14.22
2018-05-04T12:20:32.227Z,14.61
2018-05-04T12:21:32.243Z,14.25
2018-05-04T12:22:32.262Z,14.27
2018-05-04T12:23:32.276Z,14.17
2018-05-04T12:24:32.294Z,14.14
2018-05-04T12:25:32.312Z,14.29
2018-05-04T12:26:32.330Z,14.40
2018-05-04T12:27:32.344Z,14.45
2018-05-04T12:28:32.370Z,14.92
2018-05-04T12:29:32.381Z,14.83
2018-05-04T12:30:32.409Z,14.92
2018-05-04T12:31:32.415Z,14.84
2018-05-04T12:32:32.432Z,14.95
2018-05-04T12:33:32.449Z,14.99
2018-05-04T12:34:32.466Z,14.92
2018-05-04T12:35:32.484Z,15.10
2018-05-04T12:36:32.501Z,15.17
2018-05-04T12:37:32.519Z,15.23
2018-05-04T12:38:32.579Z,15.21
2018-05-04T12:39:32.553Z,15.54
2018-05-04T12:40:32.576Z,16.04
2018-05-04T12:41:32.589Z,16.27
2018-05-04T12:42:32.607Z,16.33
2018-05-04T12:43:32.623Z,15.84
2018-05-04T12:44:32.643Z,15.93
2018-05-04T12:45:32.656Z,15.89
2018-05-04T12:46:32.677Z,16.08
2018-05-04T12:47:32.693Z,15.94
2018-05-04T12:48:32.708Z,15.56
2018-05-04T12:49:32.733Z,15.13
2018-05-04T12:50:32.746Z,15.43
2018-05-04T12:51:32.763Z,15.56
2018-05-04T12:52:32.781Z,16.08
2018-05-04T12:53:32.852Z,15.87
2018-05-04T12:54:32.817Z,15.80
2018-05-04T12:55:32.834Z,15.75
2018-05-04T12:56:32.851Z,16.05
2018-05-04T12:57:32.870Z,16.46
2018-05-04T12:58:32.890Z,16.35
2018-05-04T12:59:32.905Z,15.90
2018-05-04T13:00:32.924Z,15.49
2018-05-04T13:01:32.942Z,15.71
2018-05-04T13:02:32.964Z,16.25
2018-05-04T13:03:32.981Z,16.35
2018-05-04T13:04:33.058Z,16.64
2018-05-04T13:05:33.017Z,16.64
2018-05-04T13:06:33.031Z,16.67
2018-05-04T13:07:33.049Z,16.85
2018-05-04T13:08:33.067Z,17.19
2018-05-04T13:09:33.084Z,17.54